createdAt,value
2023-11-02T00:04:02.180Z,100.00
2023-11-02T00:09:17.049Z,100.00
2023-11-02T00:14:19.938Z,100.00
2023-11-02T00:19:31.991Z,100.00
2023-11-02T00:24:38.533Z,100.00
2023-11-02T00:29:40.576Z,100.00
2023-11-02T00:34:42.557Z,100.00
2023-11-02T00:39:44.602Z,100.00
2023-11-02T00:44:50.168Z,100.00
2023-11-02T00:49:58.862Z,100.00
2023-11-02T00:55:03.339Z,100.00
2023-11-02T01:00:09.339Z,100.00
2023-11-02T01:05:24.135Z,100.00
2023-11-02T01:10:26.989Z,100.00
2023-11-02T01:15:56.229Z,100.00
2023-11-02T01:21:06.066Z,100.00
2023-11-02T01:26:49.782Z,100.00
2023-11-02T01:31:53.817Z,100.00
2023-11-02T01:36:58.992Z,100.00
2023-11-02T01:42:15.980Z,100.00
2023-11-02T01:47:29.941Z,100.00
2023-11-02T01:52:48.288Z,100.00
2023-11-02T01:58:07.621Z,100.00
2023-11-02T02:03:28.611Z,100.00
2023-11-02T02:09:00.146Z,100.00
2023-11-02T02:14:37.087Z,100.00
2023-11-02T02:19:51.189Z,100.00
2023-11-02T02:25:01.124Z,100.00
2023-11-02T02:30:29.964Z,100.00
2023-11-02T02:35:38.622Z,100.00
2023-11-02T02:40:42.848Z,100.00
2023-11-02T02:45:47.208Z,100.00
2023-11-02T02:50:51.787Z,100.00
2023-11-02T02:55:57.300Z,100.00
2023-11-02T03:01:01.289Z,100.00
2023-11-02T03:06:05.892Z,100.00
2023-11-02T03:11:15.892Z,100.00
2023-11-02T03:16:23.502Z,100.00
2023-11-02T03:21:27.220Z,100.00
2023-11-02T03:26:59.595Z,100.00
2023-11-02T03:32:19.736Z,100.00
2023-11-02T03:37:48.015Z,100.00
2023-11-02T03:43:12.620Z,100.00
2023-11-02T03:48:16.763Z,100.00
2023-11-02T03:53:57.062Z,100.00
2023-11-02T03:59:19.069Z,100.00
2023-11-02T04:04:38.896Z,100.00
2023-11-02T04:09:51.243Z,100.00
2023-11-02T04:14:56.679Z,100.00
2023-11-02T04:20:00.159Z,100.00
2023-11-02T04:25:02.015Z,100.00
2023-11-02T04:30:06.823Z,100.00
2023-11-02T04:35:11.780Z,100.00
2023-11-02T04:40:18.547Z,100.00
2023-11-02T04:45:22.442Z,100.00
2023-11-02T04:50:28.338Z,100.00
2023-11-02T04:55:30.167Z,100.00
2023-11-02T05:00:32.267Z,100.00
2023-11-02T05:05:36.777Z,100.00
2023-11-02T05:10:41.033Z,100.00
2023-11-02T05:15:55.638Z,100.00
2023-11-02T05:21:01.060Z,100.00
2023-11-02T05:26:06.104Z,100.00
2023-11-02T05:31:08.006Z,100.00
2023-11-02T05:36:10.300Z,100.00
2023-11-02T05:41:12.505Z,100.00
2023-11-02T05:46:14.542Z,100.00
2023-11-02T05:51:19.109Z,100.00
2023-11-02T05:56:21.233Z,100.00
2023-11-02T06:01:24.838Z,100.00
2023-11-02T06:06:26.876Z,100.00
2023-11-02T06:11:28.747Z,100.00
2023-11-02T06:16:30.611Z,100.00
2023-11-02T06:21:32.580Z,100.00
2023-11-02T06:26:36.629Z,100.00
2023-11-02T06:31:39.033Z,100.00
2023-11-02T06:36:46.824Z,100.00
2023-11-02T06:41:49.063Z,100.00
2023-11-02T06:46:50.929Z,100.00
2023-11-02T06:51:53.017Z,100.00
2023-11-02T06:56:54.972Z,100.00
2023-11-02T07:01:56.941Z,100.00
2023-11-02T07:07:02.241Z,100.00
2023-11-02T07:12:07.010Z,100.00
2023-11-02T07:17:15.670Z,100.00
2023-11-02T07:22:19.704Z,100.00
2023-11-02T07:27:21.596Z,100.00
2023-11-02T07:32:29.562Z,100.00
2023-11-02T07:37:31.413Z,100.00
2023-11-02T07:42:33.350Z,100.00
2023-11-02T07:47:35.271Z,100.00
2023-11-02T07:52:38.860Z,100.00
2023-11-02T07:57:44.353Z,100.00
2023-11-02T08:02:46.287Z,100.00
2023-11-02T08:07:52.632Z,100.00
2023-11-02T08:12:57.169Z,100.00
2023-11-02T08:18:01.484Z,100.00
2023-11-02T08:23:03.355Z,100.00
2023-11-02T08:28:05.169Z,100.00
2023-11-02T08:33:07.702Z,100.00
2023-11-02T08:38:12.746Z,100.00
2023-11-02T08:43:14.869Z,100.00
2023-11-02T08:48:18.990Z,100.00
2023-11-02T08:53:20.940Z,100.00
2023-11-02T08:58:22.845Z,100.00
2023-11-02T09:03:26.918Z,100.00
2023-11-02T09:08:28.725Z,100.00
2023-11-02T09:13:31.737Z,100.00
2023-11-02T09:18:33.868Z,100.00
2023-11-02T09:23:38.778Z,100.00
2023-11-02T09:28:40.820Z,100.00
2023-11-02T09:33:42.683Z,100.00
2023-11-02T09:38:44.799Z,100.00
2023-11-02T09:43:47.066Z,100.00
2023-11-02T09:48:48.951Z,100.00
2023-11-02T09:53:51.312Z,100.00
2023-11-02T09:58:58.122Z,100.00
2023-11-02T10:03:59.975Z,100.00
2023-11-02T10:09:03.579Z,100.00
2023-11-02T10:14:08.091Z,100.00
2023-11-02T10:19:10.378Z,100.00
2023-11-02T10:24:12.792Z,100.00
2023-11-02T10:29:15.023Z,100.00
2023-11-02T10:34:17.060Z,100.00
2023-11-02T10:39:20.177Z,100.00
2023-11-02T10:44:29.390Z,100.00
2023-11-02T10:49:36.783Z,100.00
2023-11-02T10:54:55.104Z,100.00
2023-11-02T11:00:01.193Z,100.00
2023-11-02T11:05:11.040Z,100.00
2023-11-02T11:10:14.436Z,100.00
2023-11-02T11:15:20.736Z,100.00
2023-11-02T11:20:27.187Z,100.00
2023-11-02T11:25:29.129Z,100.00
2023-11-02T11:30:35.584Z,100.00
2023-11-02T11:35:37.449Z,100.00
2023-11-02T11:40:44.955Z,100.00
2023-11-02T11:45:47.132Z,100.00
2023-11-02T11:50:54.090Z,100.00
2023-11-02T11:55:57.485Z,100.00
2023-11-02T12:01:02.200Z,100.00
2023-11-02T12:06:04.931Z,100.00
2023-11-02T12:11:13.330Z,100.00
2023-11-02T12:16:15.223Z,100.00
2023-11-02T12:21:19.290Z,100.00
2023-11-02T12:26:29.984Z,100.00
2023-11-02T12:31:33.684Z,100.00
2023-11-02T12:36:44.052Z,100.00
2023-11-02T12:41:47.489Z,100.00
2023-11-02T12:47:04.818Z,99.77
2023-11-02T12:52:09.482Z,99.51
2023-11-02T12:57:14.517Z,99.39
2023-11-02T13:02:28.445Z,99.25
2023-11-02T13:07:34.172Z,99.65
2023-11-02T13:12:41.143Z,98.02
2023-11-02T13:17:48.498Z,97.84
2023-11-02T13:22:51.933Z,97.88
2023-11-02T13:27:55.639Z,98.49
2023-11-02T13:33:00.180Z,98.43
2023-11-02T13:38:02.347Z,97.49
2023-11-02T13:43:07.381Z,94.24
2023-11-02T13:48:10.293Z,94.53
2023-11-02T13:53:15.465Z,94.83
2023-11-02T13:58:17.318Z,94.87
2023-11-02T14:03:22.030Z,90.45
2023-11-02T14:08:25.160Z,87.90
2023-11-02T14:13:27.061Z,85.78
2023-11-02T14:18:32.905Z,86.84
2023-11-02T14:23:35.066Z,87.29
2023-11-02T14:28:37.269Z,87.88
2023-11-02T14:33:39.837Z,87.74
2023-11-02T14:38:42.456Z,89.07
2023-11-02T14:43:49.257Z,90.12
2023-11-02T14:48:51.227Z,92.00
2023-11-02T14:53:53.119Z,92.32
2023-11-02T14:58:54.945Z,92.63
2023-11-02T15:04:01.714Z,92.67
2023-11-02T15:09:09.785Z,93.57
2023-11-02T15:14:12.757Z,95.64
2023-11-02T15:19:14.673Z,95.61
2023-11-02T15:24:17.197Z,97.33
2023-11-02T15:29:19.320Z,98.76
2023-11-02T15:34:24.385Z,99.78
2023-11-02T15:39:30.997Z,100.00
2023-11-02T15:44:33.271Z,100.00
2023-11-02T15:49:40.011Z,100.00
2023-11-02T15:54:41.973Z,100.00
2023-11-02T15:59:46.294Z,100.00
2023-11-02T16:04:50.982Z,100.00
2023-11-02T16:09:53.088Z,100.00
2023-11-02T16:14:55.022Z,100.00
2023-11-02T16:19:59.646Z,100.00
2023-11-02T16:25:01.720Z,100.00
2023-11-02T16:30:05.533Z,100.00
2023-11-02T16:35:18.185Z,100.00
2023-11-02T16:40:30.248Z,100.00
2023-11-02T16:45:35.850Z,100.00
2023-11-02T16:50:38.391Z,100.00
2023-11-02T16:55:43.236Z,100.00
2023-11-02T17:00:45.237Z,100.00
2023-11-02T17:05:47.428Z,100.00
2023-11-02T17:10:49.755Z,100.00
2023-11-02T17:15:55.121Z,100.00
2023-11-02T17:20:59.173Z,100.00
2023-11-02T17:26:01.016Z,100.00
2023-11-02T17:31:06.494Z,99.38
2023-11-02T17:36:08.757Z,99.56
2023-11-02T17:41:17.629Z,99.74
2023-11-02T17:46:19.950Z,99.07
2023-11-02T17:51:26.132Z,98.41
2023-11-02T17:56:29.744Z,98.10
2023-11-02T18:01:35.413Z,97.15
2023-11-02T18:06:37.644Z,92.55
2023-11-02T18:11:39.662Z,89.42
2023-11-02T18:16:44.209Z,85.14
2023-11-02T18:21:46.140Z,82.42
2023-11-02T18:26:48.359Z,82.45
2023-11-02T18:31:50.232Z,82.92
2023-11-02T18:36:54.698Z,82.63
2023-11-02T18:41:56.609Z,81.14
2023-11-02T18:47:02.081Z,80.78
2023-11-02T18:52:09.323Z,79.84
2023-11-02T18:57:11.837Z,80.58
2023-11-02T19:02:15.956Z,78.61
2023-11-02T19:07:21.070Z,78.38
2023-11-02T19:12:23.501Z,77.94
2023-11-02T19:17:25.582Z,77.68
2023-11-02T19:22:30.233Z,77.76
2023-11-02T19:27:32.568Z,76.73
2023-11-02T19:32:34.826Z,75.76
2023-11-02T19:37:37.473Z,75.27
2023-11-02T19:42:39.973Z,74.89
2023-11-02T19:47:41.965Z,75.94
2023-11-02T19:52:44.037Z,76.26
2023-11-02T19:57:48.146Z,75.02
2023-11-02T20:02:50.252Z,76.10
2023-11-02T20:07:57.041Z,77.69
2023-11-02T20:13:01.281Z,79.10
2023-11-02T20:18:05.069Z,79.87
2023-11-02T20:23:08.900Z,82.30
2023-11-02T20:28:10.779Z,83.71
2023-11-02T20:33:14.468Z,84.98
2023-11-02T20:38:18.810Z,84.66
2023-11-02T20:43:20.756Z,86.15
2023-11-02T20:48:23.065Z,85.56
2023-11-02T20:53:25.021Z,86.48
2023-11-02T20:58:27.317Z,87.45
2023-11-02T21:03:29.730Z,86.48
2023-11-02T21:08:34.191Z,86.55
2023-11-02T21:13:36.575Z,86.63
2023-11-02T21:18:38.521Z,87.52
2023-11-02T21:23:41.780Z,87.25
2023-11-02T21:28:45.909Z,86.40
2023-11-02T21:33:55.119Z,85.95
2023-11-02T21:38:57.306Z,85.48
2023-11-02T21:44:01.236Z,86.61
2023-11-02T21:49:03.465Z,86.19
2023-11-02T21:54:05.624Z,85.94
2023-11-02T21:59:12.132Z,86.96
2023-11-02T22:04:14.570Z,88.28
2023-11-02T22:09:18.854Z,89.79
2023-11-02T22:14:20.775Z,90.88
2023-11-02T22:19:22.867Z,91.29
2023-11-02T22:24:24.796Z,92.30
2023-11-02T22:29:26.804Z,93.01
2023-11-02T22:34:28.915Z,92.04
2023-11-02T22:39:30.982Z,92.16
2023-11-02T22:44:35.507Z,92.37
2023-11-02T22:49:37.328Z,92.76
2023-11-02T22:54:39.712Z,92.13
2023-11-02T22:59:42.695Z,91.04
2023-11-02T23:04:45.777Z,90.70
2023-11-02T23:09:47.764Z,91.01
2023-11-02T23:14:51.793Z,90.67
2023-11-02T23:19:56.323Z,90.26
2023-11-02T23:24:58.865Z,89.55
2023-11-02T23:30:00.860Z,87.19
2023-11-02T23:35:03.839Z,86.46
2023-11-02T23:40:09.201Z,85.74
2023-11-02T23:45:13.770Z,86.39
2023-11-02T23:50:16.209Z,86.80
2023-11-02T23:55:18.158Z,83.43
